sensor_id;sensor_type;location;lat;lon;timestamp;P1;durP1;ratioP1;P2;durP2;ratioP2
47009;SDS011;59230;54.164;-3.124;2023-05-29T00:00:32;31.25;;;5.05;;
47009;SDS011;59230;54.164;-3.124;2023-05-29T00:02:58;20.70;;;4.78;;
47009;SDS011;59230;54.164;-3.124;2023-05-29T00:05:23;20.58;;;5.05;;
47009;SDS011;59230;54.164;-3.124;2023-05-29T00:07:49;23.65;;;5.10;;
47009;SDS011;59230;54.164;-3.124;2023-05-29T00:10:15;24.60;;;5.25;;
47009;SDS011;59230;54.164;-3.124;2023-05-29T00:12:41;22.52;;;4.53;;
47009;SDS011;59230;54.164;-3.124;2023-05-29T00:15:06;17.42;;;4.63;;
47009;SDS011;59230;54.164;-3.124;2023-05-29T00:17:33;21.90;;;4.28;;
47009;SDS011;59230;54.164;-3.124;2023-05-29T00:19:59;26.10;;;5.30;;
47009;SDS011;59230;54.164;-3.124;2023-05-29T00:22:26;22.52;;;4.78;;
47009;SDS011;59230;54.164;-3.124;2023-05-29T00:24:52;22.08;;;4.38;;
47009;SDS011;59230;54.164;-3.124;2023-05-29T00:27:17;21.90;;;4.38;;
47009;SDS011;59230;54.164;-3.124;2023-05-29T00:29:43;22.30;;;4.80;;
47009;SDS011;59230;54.164;-3.124;2023-05-29T00:32:09;21.08;;;4.60;;
47009;SDS011;59230;54.164;-3.124;2023-05-29T00:34:34;23.63;;;4.72;;
47009;SDS011;59230;54.164;-3.124;2023-05-29T00:37:00;29.80;;;5.00;;
47009;SDS011;59230;54.164;-3.124;2023-05-29T00:39:26;24.38;;;5.60;;
47009;SDS011;59230;54.164;-3.124;2023-05-29T00:41:52;20.65;;;4.47;;
47009;SDS011;59230;54.164;-3.124;2023-05-29T00:44:18;27.40;;;5.55;;
47009;SDS011;59230;54.164;-3.124;2023-05-29T00:46:44;18.38;;;4.97;;
47009;SDS011;59230;54.164;-3.124;2023-05-29T00:49:10;19.95;;;4.60;;
47009;SDS011;59230;54.164;-3.124;2023-05-29T00:51:36;22.85;;;4.68;;
47009;SDS011;59230;54.164;-3.124;2023-05-29T00:54:03;23.10;;;4.57;;
47009;SDS011;59230;54.164;-3.124;2023-05-29T00:56:30;17.65;;;4.38;;
47009;SDS011;59230;54.164;-3.124;2023-05-29T00:58:55;25.70;;;5.40;;
47009;SDS011;59230;54.164;-3.124;2023-05-29T01:01:21;20.33;;;4.88;;
47009;SDS011;59230;54.164;-3.124;2023-05-29T01:03:46;23.65;;;5.30;;
47009;SDS011;59230;54.164;-3.124;2023-05-29T01:06:13;21.23;;;4.13;;
47009;SDS011;59230;54.164;-3.124;2023-05-29T01:08:39;17.75;;;4.55;;
47009;SDS011;59230;54.164;-3.124;2023-05-29T01:11:08;25.75;;;5.72;;
47009;SDS011;59230;54.164;-3.124;2023-05-29T01:13:46;26.20;;;4.80;;
47009;SDS011;59230;54.164;-3.124;2023-05-29T01:16:25;20.83;;;4.53;;
47009;SDS011;59230;54.164;-3.124;2023-05-29T01:19:05;18.60;;;4.13;;
47009;SDS011;59230;54.164;-3.124;2023-05-29T01:22:12;23.60;;;4.57;;
47009;SDS011;59230;54.164;-3.124;2023-05-29T01:27:30;21.52;;;4.15;;
47009;SDS011;59230;54.164;-3.124;2023-05-29T01:29:55;27.00;;;4.45;;
47009;SDS011;59230;54.164;-3.124;2023-05-29T01:32:21;18.98;;;4.43;;
47009;SDS011;59230;54.164;-3.124;2023-05-29T01:34:47;24.45;;;4.53;;
47009;SDS011;59230;54.164;-3.124;2023-05-29T01:37:13;20.33;;;4.40;;
47009;SDS011;59230;54.164;-3.124;2023-05-29T01:39:38;21.27;;;4.88;;
47009;SDS011;59230;54.164;-3.124;2023-05-29T01:42:04;16.55;;;4.43;;
47009;SDS011;59230;54.164;-3.124;2023-05-29T01:44:30;23.63;;;4.55;;
47009;SDS011;59230;54.164;-3.124;2023-05-29T01:46:56;17.17;;;4.65;;
47009;SDS011;59230;54.164;-3.124;2023-05-29T01:49:23;18.17;;;4.60;;
47009;SDS011;59230;54.164;-3.124;2023-05-29T01:51:50;18.25;;;4.55;;
47009;SDS011;59230;54.164;-3.124;2023-05-29T01:54:15;18.85;;;4.82;;
47009;SDS011;59230;54.164;-3.124;2023-05-29T01:56:41;26.35;;;5.65;;
47009;SDS011;59230;54.164;-3.124;2023-05-29T01:59:06;27.85;;;4.28;;
47009;SDS011;59230;54.164;-3.124;2023-05-29T02:01:33;25.50;;;4.95;;
47009;SDS011;59230;54.164;-3.124;2023-05-29T02:03:58;23.55;;;4.65;;
47009;SDS011;59230;54.164;-3.124;2023-05-29T02:06:24;20.55;;;4.55;;
47009;SDS011;59230;54.164;-3.124;2023-05-29T02:08:49;19.90;;;4.90;;
47009;SDS011;59230;54.164;-3.124;2023-05-29T02:11:15;20.42;;;4.75;;
47009;SDS011;59230;54.164;-3.124;2023-05-29T02:13:41;18.90;;;4.75;;
47009;SDS011;59230;54.164;-3.124;2023-05-29T02:16:06;23.27;;;4.78;;
47009;SDS011;59230;54.164;-3.124;2023-05-29T02:18:32;21.67;;;4.85;;
47009;SDS011;59230;54.164;-3.124;2023-05-29T02:20:59;21.58;;;4.20;;
47009;SDS011;59230;54.164;-3.124;2023-05-29T02:23:25;21.88;;;4.82;;
47009;SDS011;59230;54.164;-3.124;2023-05-29T02:25:50;25.15;;;4.13;;
47009;SDS011;59230;54.164;-3.124;2023-05-29T02:28:16;22.92;;;4.85;;
47009;SDS011;59230;54.164;-3.124;2023-05-29T02:30:41;23.38;;;4.78;;
47009;SDS011;59230;54.164;-3.124;2023-05-29T02:33:07;24.15;;;4.53;;
47009;SDS011;59230;54.164;-3.124;2023-05-29T02:35:33;26.80;;;4.70;;
47009;SDS011;59230;54.164;-3.124;2023-05-29T02:37:59;20.48;;;4.47;;
47009;SDS011;59230;54.164;-3.124;2023-05-29T02:40:24;20.63;;;4.70;;
47009;SDS011;59230;54.164;-3.124;2023-05-29T02:42:50;23.92;;;4.75;;
47009;SDS011;59230;54.164;-3.124;2023-05-29T02:45:16;22.95;;;5.20;;
47009;SDS011;59230;54.164;-3.124;2023-05-29T02:47:41;27.88;;;4.72;;
47009;SDS011;59230;54.164;-3.124;2023-05-29T02:50:07;21.55;;;4.03;;
47009;SDS011;59230;54.164;-3.124;2023-05-29T02:52:33;26.33;;;5.72;;
47009;SDS011;59230;54.164;-3.124;2023-05-29T02:54:59;20.77;;;4.25;;
47009;SDS011;59230;54.164;-3.124;2023-05-29T02:57:24;16.23;;;4.38;;
47009;SDS011;59230;54.164;-3.124;2023-05-29T02:59:50;28.83;;;5.47;;
47009;SDS011;59230;54.164;-3.124;2023-05-29T03:02:20;23.80;;;4.93;;
47009;SDS011;59230;54.164;-3.124;2023-05-29T03:04:45;29.58;;;5.03;;
47009;SDS011;59230;54.164;-3.124;2023-05-29T03:07:11;26.88;;;5.18;;
47009;SDS011;59230;54.164;-3.124;2023-05-29T03:09:37;26.70;;;5.53;;
47009;SDS011;59230;54.164;-3.124;2023-05-29T03:12:03;24.88;;;4.40;;
47009;SDS011;59230;54.164;-3.124;2023-05-29T03:14:29;25.25;;;5.28;;
47009;SDS011;59230;54.164;-3.124;2023-05-29T03:16:56;25.15;;;5.25;;
47009;SDS011;59230;54.164;-3.124;2023-05-29T03:19:21;20.00;;;4.65;;
47009;SDS011;59230;54.164;-3.124;2023-05-29T03:21:47;29.88;;;6.68;;
47009;SDS011;59230;54.164;-3.124;2023-05-29T03:24:12;25.27;;;5.30;;
47009;SDS011;59230;54.164;-3.124;2023-05-29T03:26:41;22.90;;;4.07;;
47009;SDS011;59230;54.164;-3.124;2023-05-29T03:29:07;23.23;;;4.30;;
47009;SDS011;59230;54.164;-3.124;2023-05-29T03:31:32;22.23;;;4.43;;
47009;SDS011;59230;54.164;-3.124;2023-05-29T03:33:58;23.80;;;5.00;;
47009;SDS011;59230;54.164;-3.124;2023-05-29T03:36:24;21.75;;;5.10;;
47009;SDS011;59230;54.164;-3.124;2023-05-29T03:38:49;21.95;;;4.35;;
47009;SDS011;59230;54.164;-3.124;2023-05-29T03:41:15;15.77;;;4.70;;
47009;SDS011;59230;54.164;-3.124;2023-05-29T03:43:40;19.77;;;4.15;;
47009;SDS011;59230;54.164;-3.124;2023-05-29T03:46:06;22.77;;;4.80;;
47009;SDS011;59230;54.164;-3.124;2023-05-29T03:48:31;24.67;;;4.75;;
47009;SDS011;59230;54.164;-3.124;2023-05-29T03:50:57;20.42;;;5.03;;
47009;SDS011;59230;54.164;-3.124;2023-05-29T03:53:22;16.60;;;4.63;;
47009;SDS011;59230;54.164;-3.124;2023-05-29T03:55:48;23.08;;;4.82;;
47009;SDS011;59230;54.164;-3.124;2023-05-29T03:58:13;31.48;;;5.50;;
47009;SDS011;59230;54.164;-3.124;2023-05-29T04:00:39;22.60;;;4.45;;
47009;SDS011;59230;54.164;-3.124;2023-05-29T04:03:05;27.52;;;5.35;;
47009;SDS011;59230;54.164;-3.124;2023-05-29T04:05:31;28.75;;;5.15;;
47009;SDS011;59230;54.164;-3.124;2023-05-29T04:07:56;28.30;;;4.78;;
47009;SDS011;59230;54.164;-3.124;2023-05-29T04:10:22;17.77;;;4.32;;
47009;SDS011;59230;54.164;-3.124;2023-05-29T04:12:48;27.00;;;5.18;;
47009;SDS011;59230;54.164;-3.124;2023-05-29T04:15:14;23.85;;;5.05;;
47009;SDS011;59230;54.164;-3.124;2023-05-29T04:17:39;21.00;;;4.00;;
47009;SDS011;59230;54.164;-3.124;2023-05-29T04:20:05;23.92;;;5.25;;
47009;SDS011;59230;54.164;-3.124;2023-05-29T04:22:39;29.23;;;5.25;;
47009;SDS011;59230;54.164;-3.124;2023-05-29T04:25:05;20.08;;;4.03;;
47009;SDS011;59230;54.164;-3.124;2023-05-29T04:27:30;23.17;;;4.07;;
47009;SDS011;59230;54.164;-3.124;2023-05-29T04:30:06;21.20;;;4.60;;
47009;SDS011;59230;54.164;-3.124;2023-05-29T04:32:32;21.67;;;4.90;;
47009;SDS011;59230;54.164;-3.124;2023-05-29T04:34:58;21.75;;;4.70;;
47009;SDS011;59230;54.164;-3.124;2023-05-29T04:37:28;23.58;;;4.47;;
47009;SDS011;59230;54.164;-3.124;2023-05-29T04:39:54;25.40;;;5.05;;
47009;SDS011;59230;54.164;-3.124;2023-05-29T04:42:21;14.93;;;4.32;;
47009;SDS011;59230;54.164;-3.124;2023-05-29T04:44:47;17.85;;;4.35;;
47009;SDS011;59230;54.164;-3.124;2023-05-29T04:47:14;25.52;;;4.72;;
47009;SDS011;59230;54.164;-3.124;2023-05-29T04:49:40;17.88;;;4.75;;
47009;SDS011;59230;54.164;-3.124;2023-05-29T04:52:06;24.58;;;5.10;;
47009;SDS011;59230;54.164;-3.124;2023-05-29T04:54:32;24.58;;;4.80;;
47009;SDS011;59230;54.164;-3.124;2023-05-29T04:56:59;17.00;;;4.22;;
47009;SDS011;59230;54.164;-3.124;2023-05-29T04:59:25;19.00;;;4.35;;
47009;SDS011;59230;54.164;-3.124;2023-05-29T05:01:51;17.88;;;4.43;;
47009;SDS011;59230;54.164;-3.124;2023-05-29T05:04:16;19.38;;;4.47;;
47009;SDS011;59230;54.164;-3.124;2023-05-29T05:06:42;24.58;;;4.88;;
47009;SDS011;59230;54.164;-3.124;2023-05-29T05:09:09;25.13;;;4.72;;
47009;SDS011;59230;54.164;-3.124;2023-05-29T05:11:35;21.30;;;4.82;;
47009;SDS011;59230;54.164;-3.124;2023-05-29T05:14:00;21.00;;;4.22;;
47009;SDS011;59230;54.164;-3.124;2023-05-29T05:16:26;20.17;;;4.53;;
47009;SDS011;59230;54.164;-3.124;2023-05-29T05:18:51;19.98;;;4.88;;
47009;SDS011;59230;54.164;-3.124;2023-05-29T05:21:17;21.13;;;4.50;;
47009;SDS011;59230;54.164;-3.124;2023-05-29T05:23:45;31.45;;;5.30;;
47009;SDS011;59230;54.164;-3.124;2023-05-29T05:26:11;29.45;;;5.32;;
47009;SDS011;59230;54.164;-3.124;2023-05-29T05:28:37;20.92;;;5.30;;
47009;SDS011;59230;54.164;-3.124;2023-05-29T05:31:02;24.70;;;5.10;;
47009;SDS011;59230;54.164;-3.124;2023-05-29T05:33:28;22.80;;;4.72;;
47009;SDS011;59230;54.164;-3.124;2023-05-29T05:35:53;21.77;;;4.35;;
47009;SDS011;59230;54.164;-3.124;2023-05-29T05:38:19;33.17;;;5.40;;
47009;SDS011;59230;54.164;-3.124;2023-05-29T05:40:44;31.02;;;4.35;;
47009;SDS011;59230;54.164;-3.124;2023-05-29T05:43:10;24.25;;;4.78;;
47009;SDS011;59230;54.164;-3.124;2023-05-29T05:45:36;26.45;;;5.40;;
47009;SDS011;59230;54.164;-3.124;2023-05-29T05:48:02;18.20;;;4.40;;
47009;SDS011;59230;54.164;-3.124;2023-05-29T05:50:28;13.70;;;3.78;;
47009;SDS011;59230;54.164;-3.124;2023-05-29T05:52:54;21.08;;;4.35;;
47009;SDS011;59230;54.164;-3.124;2023-05-29T05:55:20;17.40;;;4.20;;
47009;SDS011;59230;54.164;-3.124;2023-05-29T05:57:45;27.23;;;5.07;;
47009;SDS011;59230;54.164;-3.124;2023-05-29T06:00:11;21.48;;;5.15;;
47009;SDS011;59230;54.164;-3.124;2023-05-29T06:02:37;35.75;;;4.78;;
47009;SDS011;59230;54.164;-3.124;2023-05-29T06:05:03;15.75;;;4.75;;
47009;SDS011;59230;54.164;-3.124;2023-05-29T06:07:29;18.67;;;3.90;;
47009;SDS011;59230;54.164;-3.124;2023-05-29T06:09:55;22.13;;;4.90;;
47009;SDS011;59230;54.164;-3.124;2023-05-29T06:12:20;24.75;;;4.25;;
47009;SDS011;59230;54.164;-3.124;2023-05-29T06:14:46;20.27;;;4.88;;
47009;SDS011;59230;54.164;-3.124;2023-05-29T06:17:11;21.02;;;4.20;;
47009;SDS011;59230;54.164;-3.124;2023-05-29T06:19:37;22.85;;;4.68;;
47009;SDS011;59230;54.164;-3.124;2023-05-29T06:22:02;20.48;;;4.60;;
47009;SDS011;59230;54.164;-3.124;2023-05-29T06:24:31;18.30;;;4.25;;
47009;SDS011;59230;54.164;-3.124;2023-05-29T06:26:56;18.80;;;4.40;;
47009;SDS011;59230;54.164;-3.124;2023-05-29T06:29:21;25.75;;;5.18;;
47009;SDS011;59230;54.164;-3.124;2023-05-29T06:31:47;20.90;;;5.00;;
47009;SDS011;59230;54.164;-3.124;2023-05-29T06:34:12;20.05;;;4.43;;
47009;SDS011;59230;54.164;-3.124;2023-05-29T06:36:38;18.33;;;4.05;;
47009;SDS011;59230;54.164;-3.124;2023-05-29T06:39:05;16.92;;;3.60;;
47009;SDS011;59230;54.164;-3.124;2023-05-29T06:41:30;15.77;;;4.38;;
47009;SDS011;59230;54.164;-3.124;2023-05-29T06:43:56;27.63;;;4.57;;
47009;SDS011;59230;54.164;-3.124;2023-05-29T06:46:21;20.20;;;4.03;;
47009;SDS011;59230;54.164;-3.124;2023-05-29T06:48:46;23.27;;;4.72;;
47009;SDS011;59230;54.164;-3.124;2023-05-29T06:51:12;19.67;;;4.35;;
47009;SDS011;59230;54.164;-3.124;2023-05-29T06:53:38;22.75;;;4.82;;
47009;SDS011;59230;54.164;-3.124;2023-05-29T06:56:04;23.65;;;4.50;;
47009;SDS011;59230;54.164;-3.124;2023-05-29T06:58:30;19.02;;;4.20;;
47009;SDS011;59230;54.164;-3.124;2023-05-29T07:00:56;23.92;;;4.70;;
47009;SDS011;59230;54.164;-3.124;2023-05-29T07:03:22;22.52;;;4.40;;
47009;SDS011;59230;54.164;-3.124;2023-05-29T07:05:47;22.75;;;4.10;;
47009;SDS011;59230;54.164;-3.124;2023-05-29T07:08:13;17.77;;;3.50;;
47009;SDS011;59230;54.164;-3.124;2023-05-29T07:10:38;18.42;;;3.83;;
47009;SDS011;59230;54.164;-3.124;2023-05-29T07:13:04;20.17;;;3.72;;
47009;SDS011;59230;54.164;-3.124;2023-05-29T07:15:31;17.02;;;4.03;;
47009;SDS011;59230;54.164;-3.124;2023-05-29T07:17:57;18.52;;;3.85;;
47009;SDS011;59230;54.164;-3.124;2023-05-29T07:20:22;25.02;;;4.18;;
47009;SDS011;59230;54.164;-3.124;2023-05-29T07:22:47;22.60;;;3.83;;
47009;SDS011;59230;54.164;-3.124;2023-05-29T07:25:13;16.45;;;4.00;;
47009;SDS011;59230;54.164;-3.124;2023-05-29T07:27:38;18.80;;;4.20;;
47009;SDS011;59230;54.164;-3.124;2023-05-29T07:30:04;17.45;;;4.13;;
47009;SDS011;59230;54.164;-3.124;2023-05-29T07:32:30;20.52;;;3.72;;
47009;SDS011;59230;54.164;-3.124;2023-05-29T07:34:56;22.08;;;4.03;;
47009;SDS011;59230;54.164;-3.124;2023-05-29T07:47:59;15.77;;;3.58;;
47009;SDS011;59230;54.164;-3.124;2023-05-29T07:57:40;15.23;;;3.63;;
47009;SDS011;59230;54.164;-3.124;2023-05-29T08:00:24;15.45;;;3.33;;
47009;SDS011;59230;54.164;-3.124;2023-05-29T08:03:05;12.77;;;3.30;;
47009;SDS011;59230;54.164;-3.124;2023-05-29T08:05:41;13.63;;;2.58;;
47009;SDS011;59230;54.164;-3.124;2023-05-29T08:08:07;15.23;;;3.00;;
47009;SDS011;59230;54.164;-3.124;2023-05-29T08:10:33;16.27;;;3.40;;
47009;SDS011;59230;54.164;-3.124;2023-05-29T08:12:58;16.48;;;3.38;;
47009;SDS011;59230;54.164;-3.124;2023-05-29T08:18:34;15.27;;;3.20;;
47009;SDS011;59230;54.164;-3.124;2023-05-29T08:21:01;13.30;;;2.75;;
47009;SDS011;59230;54.164;-3.124;2023-05-29T08:23:27;13.60;;;3.05;;
47009;SDS011;59230;54.164;-3.124;2023-05-29T08:25:55;15.32;;;3.80;;
47009;SDS011;59230;54.164;-3.124;2023-05-29T08:28:23;15.93;;;3.22;;
47009;SDS011;59230;54.164;-3.124;2023-05-29T08:30:52;15.27;;;3.40;;
47009;SDS011;59230;54.164;-3.124;2023-05-29T08:33:17;16.63;;;3.40;;
47009;SDS011;59230;54.164;-3.124;2023-05-29T08:35:43;19.80;;;3.47;;
47009;SDS011;59230;54.164;-3.124;2023-05-29T08:38:08;19.63;;;3.88;;
47009;SDS011;59230;54.164;-3.124;2023-05-29T08:40:34;19.48;;;3.70;;
47009;SDS011;59230;54.164;-3.124;2023-05-29T08:43:02;10.73;;;2.83;;
47009;SDS011;59230;54.164;-3.124;2023-05-29T08:45:45;11.40;;;3.40;;
47009;SDS011;59230;54.164;-3.124;2023-05-29T08:48:10;14.15;;;3.00;;
47009;SDS011;59230;54.164;-3.124;2023-05-29T08:50:46;14.70;;;3.13;;
47009;SDS011;59230;54.164;-3.124;2023-05-29T08:53:12;20.83;;;3.65;;
47009;SDS011;59230;54.164;-3.124;2023-05-29T08:55:39;18.33;;;3.90;;
47009;SDS011;59230;54.164;-3.124;2023-05-29T08:58:05;13.30;;;3.38;;
47009;SDS011;59230;54.164;-3.124;2023-05-29T09:00:30;14.82;;;3.40;;
47009;SDS011;59230;54.164;-3.124;2023-05-29T09:02:57;18.92;;;3.92;;
47009;SDS011;59230;54.164;-3.124;2023-05-29T09:05:24;11.60;;;2.92;;
47009;SDS011;59230;54.164;-3.124;2023-05-29T09:07:51;16.65;;;3.30;;
47009;SDS011;59230;54.164;-3.124;2023-05-29T09:10:18;10.35;;;2.83;;
47009;SDS011;59230;54.164;-3.124;2023-05-29T09:12:45;16.65;;;3.05;;
47009;SDS011;59230;54.164;-3.124;2023-05-29T09:15:18;14.02;;;3.10;;
47009;SDS011;59230;54.164;-3.124;2023-05-29T09:17:44;12.73;;;2.90;;
47009;SDS011;59230;54.164;-3.124;2023-05-29T09:20:15;13.43;;;3.17;;
47009;SDS011;59230;54.164;-3.124;2023-05-29T09:25:42;11.65;;;3.00;;
47009;SDS011;59230;54.164;-3.124;2023-05-29T09:28:08;15.00;;;3.35;;
47009;SDS011;59230;54.164;-3.124;2023-05-29T09:30:38;12.05;;;2.95;;
47009;SDS011;59230;54.164;-3.124;2023-05-29T09:33:05;9.85;;;2.72;;
47009;SDS011;59230;54.164;-3.124;2023-05-29T09:35:39;17.77;;;3.90;;
47009;SDS011;59230;54.164;-3.124;2023-05-29T09:38:13;15.05;;;3.03;;
47009;SDS011;59230;54.164;-3.124;2023-05-29T09:40:45;12.57;;;3.03;;
47009;SDS011;59230;54.164;-3.124;2023-05-29T09:43:20;11.95;;;2.95;;
47009;SDS011;59230;54.164;-3.124;2023-05-29T09:45:49;10.63;;;3.03;;
47009;SDS011;59230;54.164;-3.124;2023-05-29T09:48:23;12.23;;;3.00;;
47009;SDS011;59230;54.164;-3.124;2023-05-29T09:51:00;11.52;;;2.78;;
47009;SDS011;59230;54.164;-3.124;2023-05-29T10:01:29;12.32;;;3.08;;
47009;SDS011;59230;54.164;-3.124;2023-05-29T10:03:54;8.63;;;2.35;;
47009;SDS011;59230;54.164;-3.124;2023-05-29T10:09:49;9.63;;;2.60;;
47009;SDS011;59230;54.164;-3.124;2023-05-29T10:12:20;11.63;;;3.00;;
47009;SDS011;59230;54.164;-3.124;2023-05-29T10:14:48;16.73;;;3.30;;
47009;SDS011;59230;54.164;-3.124;2023-05-29T10:17:18;9.02;;;2.70;;
47009;SDS011;59230;54.164;-3.124;2023-05-29T10:19:47;11.98;;;2.83;;
47009;SDS011;59230;54.164;-3.124;2023-05-29T10:22:20;12.57;;;2.83;;
47009;SDS011;59230;54.164;-3.124;2023-05-29T10:24:47;10.80;;;2.72;;
47009;SDS011;59230;54.164;-3.124;2023-05-29T10:27:14;9.02;;;2.85;;
47009;SDS011;59230;54.164;-3.124;2023-05-29T10:32:24;10.50;;;2.90;;
47009;SDS011;59230;54.164;-3.124;2023-05-29T10:37:51;9.15;;;2.97;;
47009;SDS011;59230;54.164;-3.124;2023-05-29T10:40:46;11.32;;;2.92;;
47009;SDS011;59230;54.164;-3.124;2023-05-29T10:43:34;10.68;;;2.83;;
47009;SDS011;59230;54.164;-3.124;2023-05-29T10:46:02;13.65;;;2.67;;
47009;SDS011;59230;54.164;-3.124;2023-05-29T10:51:23;13.02;;;3.03;;
47009;SDS011;59230;54.164;-3.124;2023-05-29T10:53:54;9.75;;;2.83;;
47009;SDS011;59230;54.164;-3.124;2023-05-29T10:56:20;10.27;;;2.72;;
47009;SDS011;59230;54.164;-3.124;2023-05-29T10:58:52;14.02;;;2.97;;
47009;SDS011;59230;54.164;-3.124;2023-05-29T11:01:23;11.07;;;3.22;;
47009;SDS011;59230;54.164;-3.124;2023-05-29T11:03:53;10.07;;;2.40;;
47009;SDS011;59230;54.164;-3.124;2023-05-29T11:06:41;13.80;;;2.63;;
47009;SDS011;59230;54.164;-3.124;2023-05-29T11:12:16;11.80;;;3.10;;
47009;SDS011;59230;54.164;-3.124;2023-05-29T11:20:03;12.20;;;2.85;;
47009;SDS011;59230;54.164;-3.124;2023-05-29T11:25:14;13.82;;;3.08;;
47009;SDS011;59230;54.164;-3.124;2023-05-29T11:27:52;11.55;;;2.85;;
47009;SDS011;59230;54.164;-3.124;2023-05-29T11:30:21;10.15;;;2.78;;
47009;SDS011;59230;54.164;-3.124;2023-05-29T11:32:49;13.50;;;2.72;;
47009;SDS011;59230;54.164;-3.124;2023-05-29T11:35:19;11.10;;;2.88;;
47009;SDS011;59230;54.164;-3.124;2023-05-29T11:37:47;10.65;;;3.00;;
47009;SDS011;59230;54.164;-3.124;2023-05-29T11:40:13;16.00;;;2.95;;
47009;SDS011;59230;54.164;-3.124;2023-05-29T11:42:47;16.00;;;3.72;;
47009;SDS011;59230;54.164;-3.124;2023-05-29T11:45:19;16.67;;;3.85;;
47009;SDS011;59230;54.164;-3.124;2023-05-29T11:47:55;18.27;;;4.15;;
47009;SDS011;59230;54.164;-3.124;2023-05-29T11:50:25;12.85;;;3.65;;
47009;SDS011;59230;54.164;-3.124;2023-05-29T11:52:53;15.07;;;3.88;;
47009;SDS011;59230;54.164;-3.124;2023-05-29T11:55:19;15.38;;;3.70;;
47009;SDS011;59230;54.164;-3.124;2023-05-29T11:58:01;20.05;;;3.95;;
47009;SDS011;59230;54.164;-3.124;2023-05-29T12:00:32;18.00;;;3.78;;
47009;SDS011;59230;54.164;-3.124;2023-05-29T12:02:58;17.85;;;4.68;;
47009;SDS011;59230;54.164;-3.124;2023-05-29T12:08:15;14.50;;;3.75;;
47009;SDS011;59230;54.164;-3.124;2023-05-29T12:10:47;20.40;;;4.45;;
47009;SDS011;59230;54.164;-3.124;2023-05-29T12:13:18;16.27;;;3.72;;
47009;SDS011;59230;54.164;-3.124;2023-05-29T12:15:44;16.42;;;3.28;;
47009;SDS011;59230;54.164;-3.124;2023-05-29T12:18:10;16.65;;;3.95;;
47009;SDS011;59230;54.164;-3.124;2023-05-29T12:20:36;14.02;;;3.65;;
47009;SDS011;59230;54.164;-3.124;2023-05-29T12:23:01;17.90;;;3.65;;
47009;SDS011;59230;54.164;-3.124;2023-05-29T12:25:27;19.15;;;4.07;;
47009;SDS011;59230;54.164;-3.124;2023-05-29T12:27:54;17.67;;;3.78;;
47009;SDS011;59230;54.164;-3.124;2023-05-29T12:30:21;18.02;;;4.00;;
47009;SDS011;59230;54.164;-3.124;2023-05-29T12:32:48;16.15;;;4.18;;
47009;SDS011;59230;54.164;-3.124;2023-05-29T12:35:21;16.98;;;3.72;;
47009;SDS011;59230;54.164;-3.124;2023-05-29T12:37:49;15.95;;;4.00;;
47009;SDS011;59230;54.164;-3.124;2023-05-29T12:42:56;15.10;;;3.75;;
47009;SDS011;59230;54.164;-3.124;2023-05-29T12:45:24;14.95;;;3.88;;
47009;SDS011;59230;54.164;-3.124;2023-05-29T12:47:57;16.48;;;3.58;;
47009;SDS011;59230;54.164;-3.124;2023-05-29T12:50:24;19.80;;;4.43;;
47009;SDS011;59230;54.164;-3.124;2023-05-29T12:55:24;16.35;;;3.65;;
47009;SDS011;59230;54.164;-3.124;2023-05-29T12:57:50;14.20;;;4.30;;
47009;SDS011;59230;54.164;-3.124;2023-05-29T13:00:16;16.05;;;3.55;;
47009;SDS011;59230;54.164;-3.124;2023-05-29T13:02:42;16.58;;;4.05;;
47009;SDS011;59230;54.164;-3.124;2023-05-29T13:05:08;12.20;;;3.63;;
47009;SDS011;59230;54.164;-3.124;2023-05-29T13:07:34;21.65;;;4.40;;
47009;SDS011;59230;54.164;-3.124;2023-05-29T13:10:00;12.55;;;3.38;;
47009;SDS011;59230;54.164;-3.124;2023-05-29T13:12:26;16.63;;;3.65;;
47009;SDS011;59230;54.164;-3.124;2023-05-29T13:14:52;31.83;;;4.40;;
47009;SDS011;59230;54.164;-3.124;2023-05-29T13:17:20;17.63;;;3.88;;
47009;SDS011;59230;54.164;-3.124;2023-05-29T13:19:46;16.42;;;3.92;;
47009;SDS011;59230;54.164;-3.124;2023-05-29T13:22:11;21.13;;;4.22;;
47009;SDS011;59230;54.164;-3.124;2023-05-29T13:24:37;21.38;;;5.28;;
47009;SDS011;59230;54.164;-3.124;2023-05-29T13:27:02;22.35;;;3.90;;
47009;SDS011;59230;54.164;-3.124;2023-05-29T13:29:28;17.80;;;4.43;;
47009;SDS011;59230;54.164;-3.124;2023-05-29T13:31:54;18.10;;;4.05;;
47009;SDS011;59230;54.164;-3.124;2023-05-29T13:34:19;18.33;;;3.97;;
47009;SDS011;59230;54.164;-3.124;2023-05-29T13:36:45;16.75;;;4.07;;
47009;SDS011;59230;54.164;-3.124;2023-05-29T13:39:10;14.50;;;3.85;;
47009;SDS011;59230;54.164;-3.124;2023-05-29T13:41:36;18.05;;;3.53;;
47009;SDS011;59230;54.164;-3.124;2023-05-29T13:44:01;18.02;;;4.00;;
47009;SDS011;59230;54.164;-3.124;2023-05-29T13:46:27;18.23;;;3.80;;
47009;SDS011;59230;54.164;-3.124;2023-05-29T13:48:52;20.42;;;4.25;;
47009;SDS011;59230;54.164;-3.124;2023-05-29T13:51:18;18.77;;;3.95;;
47009;SDS011;59230;54.164;-3.124;2023-05-29T13:53:43;20.38;;;4.00;;
47009;SDS011;59230;54.164;-3.124;2023-05-29T13:56:08;20.35;;;3.80;;
47009;SDS011;59230;54.164;-3.124;2023-05-29T13:58:34;18.17;;;4.25;;
47009;SDS011;59230;54.164;-3.124;2023-05-29T14:00:59;20.45;;;4.00;;
47009;SDS011;59230;54.164;-3.124;2023-05-29T14:03:25;19.20;;;4.05;;
47009;SDS011;59230;54.164;-3.124;2023-05-29T14:05:54;21.08;;;4.10;;
47009;SDS011;59230;54.164;-3.124;2023-05-29T14:08:20;14.40;;;3.70;;
47009;SDS011;59230;54.164;-3.124;2023-05-29T14:10:45;18.02;;;3.88;;
47009;SDS011;59230;54.164;-3.124;2023-05-29T14:13:10;21.58;;;3.88;;
47009;SDS011;59230;54.164;-3.124;2023-05-29T14:15:37;16.83;;;3.90;;
47009;SDS011;59230;54.164;-3.124;2023-05-29T14:18:02;13.25;;;3.60;;
47009;SDS011;59230;54.164;-3.124;2023-05-29T14:20:28;12.63;;;3.35;;
47009;SDS011;59230;54.164;-3.124;2023-05-29T14:22:54;13.80;;;4.30;;
47009;SDS011;59230;54.164;-3.124;2023-05-29T14:25:19;13.70;;;3.53;;
47009;SDS011;59230;54.164;-3.124;2023-05-29T14:27:45;16.75;;;3.45;;
47009;SDS011;59230;54.164;-3.124;2023-05-29T14:30:11;15.07;;;3.75;;
47009;SDS011;59230;54.164;-3.124;2023-05-29T14:32:36;11.40;;;3.17;;
47009;SDS011;59230;54.164;-3.124;2023-05-29T14:35:02;17.80;;;3.67;;
47009;SDS011;59230;54.164;-3.124;2023-05-29T14:37:27;22.45;;;3.67;;
47009;SDS011;59230;54.164;-3.124;2023-05-29T14:39:53;20.35;;;3.75;;
47009;SDS011;59230;54.164;-3.124;2023-05-29T14:42:18;15.75;;;3.88;;
47009;SDS011;59230;54.164;-3.124;2023-05-29T14:44:44;16.05;;;4.00;;
47009;SDS011;59230;54.164;-3.124;2023-05-29T14:47:09;17.50;;;4.07;;
47009;SDS011;59230;54.164;-3.124;2023-05-29T14:49:35;13.32;;;3.17;;
47009;SDS011;59230;54.164;-3.124;2023-05-29T14:52:01;16.70;;;3.70;;
47009;SDS011;59230;54.164;-3.124;2023-05-29T14:54:29;15.68;;;3.80;;
47009;SDS011;59230;54.164;-3.124;2023-05-29T14:56:54;17.88;;;4.22;;
47009;SDS011;59230;54.164;-3.124;2023-05-29T14:59:20;13.35;;;3.85;;
47009;SDS011;59230;54.164;-3.124;2023-05-29T15:01:46;18.85;;;3.30;;
47009;SDS011;59230;54.164;-3.124;2023-05-29T15:04:11;16.70;;;4.03;;
47009;SDS011;59230;54.164;-3.124;2023-05-29T15:06:37;20.35;;;4.72;;
47009;SDS011;59230;54.164;-3.124;2023-05-29T15:09:02;11.30;;;2.90;;
47009;SDS011;59230;54.164;-3.124;2023-05-29T15:11:31;18.15;;;4.15;;
47009;SDS011;59230;54.164;-3.124;2023-05-29T15:13:56;15.77;;;4.22;;
47009;SDS011;59230;54.164;-3.124;2023-05-29T15:16:22;16.70;;;3.38;;
47009;SDS011;59230;54.164;-3.124;2023-05-29T15:18:48;17.92;;;4.35;;
47009;SDS011;59230;54.164;-3.124;2023-05-29T15:21:13;15.70;;;3.75;;
47009;SDS011;59230;54.164;-3.124;2023-05-29T15:23:38;16.30;;;3.90;;
47009;SDS011;59230;54.164;-3.124;2023-05-29T15:26:05;18.80;;;4.15;;